createdAt,value
2018-11-13T00:04:59.158Z,6.00
2018-11-13T00:10:02.634Z,6.00
2018-11-13T00:15:06.149Z,7.00
2018-11-13T00:20:12.077Z,6.00
2018-11-13T00:25:16.818Z,6.00
2018-11-13T00:30:23.650Z,6.60
2018-11-13T00:35:26.818Z,6.00
2018-11-13T00:40:30.290Z,6.75
2018-11-13T00:45:33.852Z,5.00
2018-11-13T00:50:37.303Z,6.20
2018-11-13T00:55:40.695Z,5.40
2018-11-13T01:00:44.136Z,5.00
2018-11-13T01:05:47.543Z,6.80
2018-11-13T01:10:50.985Z,4.50
2018-11-13T01:15:54.416Z,4.75
2018-11-13T01:20:58.089Z,5.00
2018-11-13T01:26:01.553Z,6.00
2018-11-13T01:31:05.227Z,5.00
2018-11-13T01:36:08.762Z,5.00
2018-11-13T01:41:12.155Z,6.00
2018-11-13T01:46:15.893Z,4.60
2018-11-13T01:51:19.313Z,4.50
2018-11-13T01:56:22.713Z,6.40
2018-11-13T02:01:26.739Z,6.00
2018-11-13T02:06:30.922Z,5.00
2018-11-13T02:11:35.010Z,5.50
2018-11-13T02:16:39.204Z,4.50
2018-11-13T02:21:42.926Z,5.00
2018-11-13T02:26:47.302Z,4.00
2018-11-13T02:31:50.982Z,4.00
2018-11-13T02:36:54.429Z,4.50
2018-11-13T02:41:57.930Z,5.00
2018-11-13T02:47:01.454Z,4.75
2018-11-13T02:52:11.608Z,5.00
2018-11-13T02:57:15.049Z,5.00
2018-11-13T03:02:18.479Z,5.75
2018-11-13T03:07:22.531Z,5.00
2018-11-13T03:12:26.337Z,4.80
2018-11-13T03:17:29.983Z,4.00
2018-11-13T03:22:33.496Z,5.25
2018-11-13T03:27:37.387Z,4.00
2018-11-13T03:32:40.952Z,4.20
2018-11-13T03:37:44.966Z,3.75
2018-11-13T03:42:49.465Z,3.75
2018-11-13T03:47:53.041Z,4.00
2018-11-13T03:52:56.478Z,5.00
2018-11-13T03:57:59.943Z,4.00
2018-11-13T04:03:03.560Z,4.25
2018-11-13T04:08:07.809Z,4.25
2018-11-13T04:13:11.381Z,5.00
2018-11-13T04:18:14.856Z,5.00
2018-11-13T04:23:18.300Z,3.00
2018-11-13T04:28:21.730Z,4.40
2018-11-13T04:33:25.188Z,4.00
2018-11-13T04:38:28.670Z,4.00
2018-11-13T04:43:32.333Z,4.00
2018-11-13T04:48:35.749Z,4.40
2018-11-13T04:53:39.189Z,4.00
2018-11-13T04:58:42.649Z,4.00
2018-11-13T05:03:46.075Z,4.00
2018-11-13T05:08:49.583Z,4.00
2018-11-13T05:13:53.006Z,3.00
2018-11-13T05:18:56.438Z,4.00
2018-11-13T05:23:59.894Z,3.00
2018-11-13T05:29:03.345Z,4.00
2018-11-13T05:34:07.366Z,4.40
2018-11-13T05:39:11.668Z,3.60
2018-11-13T05:44:15.103Z,3.25
2018-11-13T05:49:18.609Z,3.00
2018-11-13T05:54:22.051Z,4.00
2018-11-13T05:59:25.570Z,3.00
2018-11-13T06:04:28.994Z,2.75
2018-11-13T06:09:32.425Z,3.00
2018-11-13T06:14:35.883Z,4.00
2018-11-13T06:19:39.389Z,4.00
2018-11-13T06:24:43.034Z,2.80
2018-11-13T06:29:46.535Z,3.00
2018-11-13T06:34:49.915Z,3.00
2018-11-13T06:39:53.378Z,3.75
2018-11-13T06:44:56.854Z,2.00
2018-11-13T06:50:00.285Z,4.00
2018-11-13T06:55:06.357Z,4.00
2018-11-13T07:00:10.510Z,3.20
2018-11-13T07:05:15.365Z,3.00
2018-11-13T07:10:20.365Z,3.00
2018-11-13T07:15:24.948Z,2.20
2018-11-13T07:20:29.593Z,2.75
2018-11-13T07:25:33.072Z,3.50
2018-11-13T07:30:36.452Z,3.00
2018-11-13T07:35:39.869Z,4.00
2018-11-13T07:40:43.332Z,14.75
2018-11-13T07:45:46.834Z,16.00
2018-11-13T07:50:50.257Z,15.25
2018-11-13T07:55:53.709Z,10.60
2018-11-13T08:00:57.133Z,9.75
2018-11-13T08:06:01.347Z,11.20
2018-11-13T08:11:05.570Z,11.00
2018-11-13T08:16:09.026Z,10.25
2018-11-13T08:21:12.544Z,10.00
2018-11-13T08:26:16.014Z,10.50
2018-11-13T08:31:19.557Z,12.00
2018-11-13T08:36:22.977Z,11.00
2018-11-13T08:41:26.474Z,10.00
2018-11-13T08:46:29.932Z,11.20
2018-11-13T08:51:33.449Z,9.50
2018-11-13T08:56:36.910Z,11.00
2018-11-13T09:01:40.353Z,10.00
2018-11-13T09:06:43.778Z,9.00
2018-11-13T09:11:47.294Z,9.00
2018-11-13T09:16:50.699Z,10.00
2018-11-13T09:21:54.222Z,9.00
2018-11-13T09:26:57.674Z,10.00
2018-11-13T09:32:01.117Z,8.00
2018-11-13T09:37:04.824Z,9.25
2018-11-13T09:42:08.282Z,8.75
2018-11-13T09:47:11.729Z,9.75
2018-11-13T09:52:15.185Z,9.80
2018-11-13T09:57:18.598Z,7.25
2018-11-13T10:02:22.550Z,9.00
2018-11-13T10:07:25.517Z,9.00
2018-11-13T10:12:29.036Z,10.00
2018-11-13T10:17:32.528Z,9.00
2018-11-13T10:22:35.989Z,8.00
2018-11-13T10:27:39.795Z,8.00
2018-11-13T10:32:43.841Z,8.00
2018-11-13T10:37:47.334Z,9.00
2018-11-13T10:42:51.338Z,8.20
2018-11-13T10:47:54.811Z,9.00
2018-11-13T10:52:58.253Z,9.00
2018-11-13T10:58:01.699Z,10.00
2018-11-13T11:04:09.285Z,7.40
2018-11-13T11:09:12.709Z,8.25
2018-11-13T11:14:16.167Z,6.20
2018-11-13T11:19:19.675Z,7.25
2018-11-13T11:24:23.112Z,8.40
2018-11-13T11:29:26.546Z,7.75
2018-11-13T11:34:29.963Z,8.00
2018-11-13T11:39:33.469Z,5.50
2018-11-13T11:44:36.910Z,8.40
2018-11-13T11:49:40.297Z,8.25
2018-11-13T11:54:43.705Z,6.80
2018-11-13T11:59:47.158Z,8.00
2018-11-13T12:04:51.299Z,7.75
2018-11-13T12:09:54.736Z,5.80
2018-11-13T12:14:58.197Z,6.20
2018-11-13T12:20:01.662Z,7.00
2018-11-13T12:25:07.766Z,8.00
2018-11-13T12:30:12.940Z,6.75
2018-11-13T12:35:17.275Z,6.80
2018-11-13T12:40:23.015Z,7.00
2018-11-13T12:45:26.405Z,6.75
2018-11-13T12:50:35.239Z,6.80
2018-11-13T12:55:38.757Z,5.00
2018-11-13T13:00:42.123Z,4.50
2018-11-13T13:05:45.548Z,6.80
2018-11-13T13:10:48.952Z,4.00
2018-11-13T13:15:52.368Z,4.75
2018-11-13T13:20:55.778Z,4.50
2018-11-13T13:25:59.267Z,6.50
2018-11-13T13:31:02.627Z,5.25
2018-11-13T13:36:06.379Z,5.00
2018-11-13T13:41:09.785Z,5.80
2018-11-13T13:46:13.184Z,4.00
2018-11-13T13:51:16.662Z,4.00
2018-11-13T13:56:20.067Z,4.50
2018-11-13T14:01:24.438Z,5.00
2018-11-13T14:06:27.850Z,5.00
2018-11-13T14:11:31.282Z,5.00
2018-11-13T14:16:34.697Z,4.00
2018-11-13T14:21:38.110Z,4.75
2018-11-13T14:26:41.556Z,4.00
2018-11-13T14:31:44.994Z,4.00
2018-11-13T14:36:48.435Z,5.00
2018-11-13T14:41:51.874Z,5.50
2018-11-13T14:46:55.288Z,5.00
2018-11-13T14:51:58.690Z,4.00
2018-11-13T14:57:02.086Z,5.00
2018-11-13T15:02:05.631Z,5.00
2018-11-13T15:07:09.113Z,5.00
2018-11-13T15:12:12.512Z,2.75
2018-11-13T15:17:15.997Z,2.75
2018-11-13T15:22:19.454Z,4.00
2018-11-13T15:27:23.031Z,3.00
2018-11-13T15:32:26.438Z,3.00
2018-11-13T15:37:29.853Z,2.60
2018-11-13T15:42:33.269Z,2.80
2018-11-13T15:47:37.741Z,1.50
2018-11-13T15:52:41.217Z,2.00
2018-11-13T15:57:45.080Z,2.00
2018-11-13T16:02:48.630Z,1.50
2018-11-13T16:07:53.593Z,2.25
2018-11-13T16:12:57.133Z,2.00
2018-11-13T16:18:01.818Z,2.50
2018-11-13T16:23:05.714Z,1.00
2018-11-13T16:28:09.132Z,2.00
2018-11-13T16:33:12.577Z,1.00
2018-11-13T16:38:16.267Z,1.20
2018-11-13T16:43:19.632Z,2.00
2018-11-13T16:48:23.173Z,1.00
2018-11-13T16:53:26.593Z,1.25
2018-11-13T16:58:30.051Z,2.00
2018-11-13T17:03:33.680Z,1.75
2018-11-13T17:08:37.323Z,2.00
2018-11-13T17:13:40.767Z,1.25
2018-11-13T17:18:44.207Z,2.00
2018-11-13T17:23:47.724Z,3.00
2018-11-13T17:28:51.099Z,1.00
2018-11-13T17:33:54.534Z,2.00
2018-11-13T17:38:58.018Z,2.00
2018-11-13T17:44:01.473Z,2.00
2018-11-13T17:49:05.110Z,1.00
2018-11-13T17:54:08.560Z,1.25
2018-11-13T17:59:11.969Z,1.00
2018-11-13T18:04:15.389Z,1.00
2018-11-13T18:09:19.114Z,2.20
2018-11-13T18:14:22.596Z,2.00
2018-11-13T18:19:26.187Z,2.00
2018-11-13T18:24:29.588Z,1.00
2018-11-13T18:29:33.070Z,1.20
2018-11-13T18:34:36.492Z,1.00
2018-11-13T18:39:40.340Z,2.00
2018-11-13T18:44:44.123Z,2.00
2018-11-13T18:49:47.678Z,2.00
2018-11-13T18:54:51.090Z,1.20
2018-11-13T18:59:54.683Z,1.00
2018-11-13T19:04:58.334Z,2.00
2018-11-13T19:10:01.856Z,1.00
2018-11-13T19:15:07.296Z,2.00
2018-11-13T19:20:14.326Z,1.00
2018-11-13T19:25:21.399Z,1.25
2018-11-13T19:30:24.945Z,1.20
2018-11-13T19:35:28.500Z,1.00
2018-11-13T19:40:33.264Z,1.00
2018-11-13T19:45:36.521Z,1.50
2018-11-13T19:50:40.742Z,1.60
2018-11-13T19:55:44.057Z,2.00
2018-11-13T20:00:47.621Z,1.75
2018-11-13T20:05:51.505Z,1.00
2018-11-13T20:10:55.015Z,1.00
2018-11-13T20:15:58.552Z,1.00
2018-11-13T20:21:03.693Z,2.00
2018-11-13T20:26:07.724Z,1.00
2018-11-13T20:31:11.171Z,3.00
2018-11-13T20:36:14.650Z,1.60
2018-11-13T20:41:18.177Z,1.00
2018-11-13T20:46:21.631Z,1.40
2018-11-13T20:51:25.148Z,1.00
2018-11-13T20:56:28.581Z,1.00
2018-11-13T21:01:32.093Z,2.00
2018-11-13T21:06:35.513Z,1.25
2018-11-13T21:11:39.030Z,1.40
2018-11-13T21:16:42.526Z,2.00
2018-11-13T21:21:46.017Z,1.00
2018-11-13T21:26:49.592Z,1.00
2018-11-13T21:31:53.098Z,1.80
2018-11-13T21:36:57.537Z,2.00
2018-11-13T21:42:00.954Z,2.00
2018-11-13T21:47:04.564Z,2.00
2018-11-13T21:52:08.038Z,1.00
2018-11-13T21:57:11.436Z,1.00
2018-11-13T22:02:15.003Z,1.00
2018-11-13T22:07:18.428Z,2.00
2018-11-13T22:12:21.904Z,2.00
2018-11-13T22:17:25.344Z,1.25
2018-11-13T22:22:28.838Z,2.00
2018-11-13T22:27:32.327Z,2.00
2018-11-13T22:32:35.795Z,1.00
2018-11-13T22:37:39.374Z,1.00
2018-11-13T22:42:42.973Z,2.00
2018-11-13T22:47:46.609Z,2.00
2018-11-13T22:52:50.509Z,1.80
2018-11-13T22:57:55.060Z,1.00
2018-11-13T23:02:58.534Z,1.00
2018-11-13T23:08:02.020Z,1.00
2018-11-13T23:13:05.884Z,1.00
2018-11-13T23:18:09.407Z,2.00
2018-11-13T23:23:12.925Z,1.80
2018-11-13T23:28:16.370Z,1.00
2018-11-13T23:33:19.864Z,0.75
2018-11-13T23:38:23.464Z,1.00
2018-11-13T23:43:27.154Z,1.40
2018-11-13T23:48:30.751Z,1.00
2018-11-13T23:53:34.308Z,1.00
2018-11-13T23:58:37.798Z,1.00
